Aviation Digital Data Service (ADDS)

Output produced by METARs form (0634 UTC 27 March 2017)
found at http://www.aviationweather.gov/adds/metars/
 
MKJP 270515Z 2706/2806 34006KT 9999 FEW022 
     BECMG 2715/2717 15012KT FEW020 FEW022CB SCT034 
     BECMG 2801/2803 34005KT
       
MKJS 270515Z 2706/2806 VRB02KT 9999 FEW022 
     BECMG 2714/2716 07014KT 
     BECMG 2800/2802 VRB02KT